KMHK/MHK METAR and TAF weather

Enter ICAO airport designator
Station Type Date Time Source
KMHK METAR 2021/09/25 10:52 UTC NOAA

KMHK 251052Z 00000KT 10SM CLR 07/06 A3016 RMK AO2 SLP213 T00670056


Station Type Date Time Source
KMHK Decoded METAR 2021/09/25 10:52 UTC NOAA

MANHATTAN REGIONAL AIRPORT, KS, United States (KMHK) 39-08N 96-41W 317M
Sep 25, 2021 - 06:52 AM EDT / 2021.09.25 1052 UTC
Wind: Calm:0
Visibility: 10 mile(s):0
Sky conditions: clear
Temperature: 44.1 F (6.7 C)
Dew Point: 42.1 F (5.6 C)
Relative Humidity: 92%
Pressure (altimeter): 30.16 in. Hg (1021 hPa)
ob: KMHK 251052Z 00000KT 10SM CLR 07/06 A3016 RMK AO2 SLP213 T00670056
cycle: 11

Station Type Date Time Source
KMHK TAF 2021/09/25 12:22 UTC NOAA

TAF KMHK 251120Z 2512/2612 VRB03KT P6SM SKC
FM251800 19008KT P6SM SKC
FM260800 19008KT P6SM SKC WS012/20040KT

Example: see airport list